createdAt,value
2019-02-03T00:00:59.311Z,86.60
2019-02-03T00:01:59.272Z,84.20
2019-02-03T00:02:59.256Z,85.90
2019-02-03T00:03:59.334Z,85.10
2019-02-03T00:04:59.202Z,80.90
2019-02-03T00:05:59.183Z,86.30
2019-02-03T00:07:03.485Z,83.00
2019-02-03T00:07:59.140Z,84.10
2019-02-03T00:08:59.118Z,85.10
2019-02-03T00:09:59.085Z,86.90
2019-02-03T00:10:59.067Z,86.70
2019-02-03T00:11:59.040Z,85.80
2019-02-03T00:12:59.020Z,86.60
2019-02-03T00:13:58.996Z,83.40
2019-02-03T00:14:58.971Z,82.20
2019-02-03T00:15:58.944Z,85.80
2019-02-03T00:16:59.013Z,89.00
2019-02-03T00:17:58.912Z,86.70
2019-02-03T00:18:58.873Z,85.70
2019-02-03T00:19:58.849Z,86.00
2019-02-03T00:20:58.835Z,85.40
2019-02-03T00:21:58.807Z,87.40
2019-02-03T00:22:58.786Z,84.50
2019-02-03T00:23:58.757Z,86.40
2019-02-03T00:24:58.739Z,85.50
2019-02-03T00:25:58.726Z,85.90
2019-02-03T00:26:58.698Z,86.80
2019-02-03T00:27:58.672Z,87.40
2019-02-03T00:28:58.638Z,83.80
2019-02-03T00:29:58.614Z,82.70
2019-02-03T00:30:58.591Z,82.90
2019-02-03T00:31:58.570Z,82.70
2019-02-03T00:32:58.543Z,85.10
2019-02-03T00:33:58.518Z,81.90
2019-02-03T00:34:58.508Z,85.40
2019-02-03T00:35:58.485Z,80.80
2019-02-03T00:36:58.453Z,81.50
2019-02-03T00:37:58.466Z,81.00
2019-02-03T00:38:58.416Z,82.00
2019-02-03T00:39:58.377Z,80.10
2019-02-03T00:40:58.405Z,82.70
2019-02-03T00:41:58.332Z,83.20
2019-02-03T00:42:58.315Z,82.70
2019-02-03T00:43:58.283Z,81.50
2019-02-03T00:44:58.264Z,78.50
2019-02-03T00:45:58.236Z,83.90
2019-02-03T00:46:58.211Z,81.40
2019-02-03T00:47:58.191Z,81.00
2019-02-03T00:48:58.166Z,77.50
2019-02-03T00:49:58.140Z,80.30
2019-02-03T00:50:58.115Z,84.00
2019-02-03T00:51:58.096Z,82.00
2019-02-03T00:52:58.070Z,80.20
2019-02-03T00:53:58.047Z,82.60
2019-02-03T00:54:58.022Z,82.40
2019-02-03T00:55:57.999Z,81.30
2019-02-03T00:56:57.979Z,78.80
2019-02-03T00:57:57.953Z,79.90
2019-02-03T00:58:57.929Z,80.40
2019-02-03T00:59:57.913Z,78.50
2019-02-03T01:00:57.890Z,77.80
2019-02-03T01:01:57.859Z,82.90
2019-02-03T01:02:57.843Z,77.80
2019-02-03T01:03:57.820Z,83.00
2019-02-03T01:04:57.791Z,81.80
2019-02-03T01:05:57.766Z,80.60
2019-02-03T01:06:57.750Z,83.30
2019-02-03T01:07:57.887Z,87.00
2019-02-03T01:08:57.696Z,78.50
2019-02-03T01:09:57.678Z,80.40
2019-02-03T01:10:57.648Z,82.30
2019-02-03T01:11:57.623Z,77.80
2019-02-03T01:12:57.600Z,80.20
2019-02-03T01:13:57.578Z,78.50
2019-02-03T01:14:57.552Z,78.50
2019-02-03T01:15:57.528Z,79.10
2019-02-03T01:16:57.504Z,77.60
2019-02-03T01:17:57.479Z,78.50
2019-02-03T01:18:57.458Z,78.30
2019-02-03T01:19:57.434Z,79.40
2019-02-03T01:20:57.410Z,78.00
2019-02-03T01:21:57.396Z,82.50
2019-02-03T01:22:57.368Z,77.80
2019-02-03T01:23:57.343Z,76.20
2019-02-03T01:24:57.316Z,79.00
2019-02-03T01:25:57.292Z,80.40
2019-02-03T01:26:57.268Z,80.10
2019-02-03T01:27:57.246Z,84.90
2019-02-03T01:28:57.222Z,81.50
2019-02-03T01:29:57.201Z,82.80
2019-02-03T01:30:57.174Z,80.80
2019-02-03T01:31:57.158Z,84.20
2019-02-03T01:32:57.128Z,79.90
2019-02-03T01:33:57.107Z,78.30
2019-02-03T01:34:57.081Z,76.20
2019-02-03T01:35:57.054Z,82.20
2019-02-03T01:36:57.034Z,81.50
2019-02-03T01:37:57.013Z,79.20
2019-02-03T01:38:56.990Z,79.80
2019-02-03T01:39:56.963Z,76.70
2019-02-03T01:40:56.938Z,76.00
2019-02-03T01:41:56.921Z,76.60
2019-02-03T01:42:56.893Z,76.70
2019-02-03T01:43:56.867Z,78.30
2019-02-03T01:44:56.843Z,76.30
2019-02-03T01:45:56.818Z,76.70
2019-02-03T01:46:56.794Z,74.40
2019-02-03T01:47:56.773Z,76.30
2019-02-03T01:48:56.756Z,76.70
2019-02-03T01:49:56.729Z,77.60
2019-02-03T01:50:56.701Z,78.60
2019-02-03T01:51:56.678Z,73.50
2019-02-03T01:52:56.653Z,75.60
2019-02-03T01:53:56.632Z,72.80
2019-02-03T01:54:56.609Z,75.30
2019-02-03T01:55:56.583Z,73.10
2019-02-03T01:56:56.564Z,76.80
2019-02-03T01:57:56.538Z,75.00
2019-02-03T01:58:56.512Z,72.20
2019-02-03T01:59:56.491Z,71.70
2019-02-03T02:00:56.470Z,76.30
2019-02-03T02:01:56.452Z,72.90
2019-02-03T02:02:56.419Z,70.90
2019-02-03T02:03:56.395Z,71.70
2019-02-03T02:04:56.383Z,74.50
2019-02-03T02:05:56.352Z,72.00
2019-02-03T02:06:56.324Z,71.50
2019-02-03T02:07:56.300Z,70.70
2019-02-03T02:08:56.284Z,73.00
2019-02-03T02:09:56.257Z,71.50
2019-02-03T02:10:56.233Z,71.60
2019-02-03T02:11:56.212Z,71.50
2019-02-03T02:12:56.185Z,74.40
2019-02-03T02:13:56.161Z,72.90
2019-02-03T02:14:56.137Z,73.80
2019-02-03T02:15:56.126Z,75.60
2019-02-03T02:16:56.100Z,75.20
2019-02-03T02:17:56.068Z,74.40
2019-02-03T02:18:56.044Z,73.80
2019-02-03T02:19:56.022Z,76.00
2019-02-03T02:20:56.001Z,74.10
2019-02-03T02:21:55.975Z,74.70
2019-02-03T02:22:55.953Z,74.20
2019-02-03T02:23:55.932Z,75.60
2019-02-03T02:24:55.909Z,76.10
2019-02-03T02:25:55.880Z,73.30
2019-02-03T02:26:55.855Z,75.70
2019-02-03T02:27:55.835Z,75.90
2019-02-03T02:28:55.821Z,75.20
2019-02-03T02:29:55.793Z,76.60
2019-02-03T02:30:55.770Z,78.50
2019-02-03T02:31:55.749Z,74.80
2019-02-03T02:32:55.727Z,76.00
2019-02-03T02:33:55.700Z,79.40
2019-02-03T02:34:55.666Z,78.90
2019-02-03T02:35:55.643Z,77.70
2019-02-03T02:36:55.622Z,78.90
2019-02-03T02:38:05.758Z,74.30
2019-02-03T02:38:55.574Z,75.00
2019-02-03T02:39:55.551Z,76.60
2019-02-03T02:40:55.532Z,73.00
2019-02-03T02:41:55.511Z,77.60
2019-02-03T02:42:55.516Z,73.30
2019-02-03T02:43:55.453Z,76.80
2019-02-03T02:44:55.429Z,78.90
2019-02-03T02:45:55.409Z,79.70
2019-02-03T02:46:55.383Z,78.00
2019-02-03T02:47:55.360Z,78.20
2019-02-03T02:48:55.334Z,77.90
2019-02-03T02:49:55.312Z,79.50
2019-02-03T02:50:55.288Z,77.40
2019-02-03T02:51:55.264Z,76.70
2019-02-03T02:52:55.252Z,77.00
2019-02-03T02:53:55.228Z,75.90
2019-02-03T02:54:55.188Z,78.60
2019-02-03T02:55:55.184Z,78.70
2019-02-03T02:56:55.149Z,72.80
2019-02-03T02:57:55.116Z,76.10
2019-02-03T02:58:55.095Z,74.10
2019-02-03T02:59:55.069Z,77.30
2019-02-03T03:00:55.044Z,75.00
2019-02-03T03:01:55.020Z,79.70
2019-02-03T03:02:55.002Z,78.30
2019-02-03T03:03:54.973Z,75.40
2019-02-03T03:04:54.948Z,74.60
2019-02-03T03:05:54.929Z,75.30
2019-02-03T03:06:54.900Z,75.10
2019-02-03T03:07:54.876Z,78.50
2019-02-03T03:08:54.852Z,76.80
2019-02-03T03:09:54.829Z,75.80
2019-02-03T03:10:54.870Z,78.50
2019-02-03T03:11:54.779Z,73.70
2019-02-03T03:12:54.754Z,76.20
2019-02-03T03:13:54.734Z,76.60
2019-02-03T03:14:54.706Z,74.10
2019-02-03T03:15:54.682Z,70.20
2019-02-03T03:16:54.658Z,73.30
2019-02-03T03:17:54.634Z,72.80
2019-02-03T03:18:54.613Z,70.60
2019-02-03T03:19:54.584Z,77.70
2019-02-03T03:20:54.565Z,71.40
2019-02-03T03:21:54.539Z,76.40
2019-02-03T03:22:54.513Z,76.00
2019-02-03T03:23:54.491Z,75.30
2019-02-03T03:24:54.471Z,69.20
2019-02-03T03:25:54.445Z,73.30
2019-02-03T03:26:54.418Z,68.30
2019-02-03T03:27:54.397Z,68.70
2019-02-03T03:28:54.377Z,72.00
2019-02-03T03:29:54.494Z,69.80
2019-02-03T03:30:54.344Z,67.70
2019-02-03T03:31:54.299Z,70.60
2019-02-03T03:32:54.351Z,71.70
2019-02-03T03:33:54.263Z,73.70
2019-02-03T03:34:54.228Z,71.30
2019-02-03T03:35:54.205Z,69.30
2019-02-03T03:36:54.177Z,70.00
2019-02-03T03:37:54.175Z,70.60
2019-02-03T03:38:54.137Z,69.30
2019-02-03T03:39:54.122Z,68.00
2019-02-03T03:40:54.086Z,69.20
2019-02-03T03:41:54.060Z,71.50
2019-02-03T03:42:54.037Z,71.00
2019-02-03T03:43:54.010Z,69.40
2019-02-03T03:44:53.985Z,72.60
2019-02-03T03:45:53.961Z,71.50
2019-02-03T03:46:53.938Z,72.40
2019-02-03T03:47:53.913Z,70.30
2019-02-03T03:48:53.890Z,70.20
2019-02-03T03:49:53.862Z,70.20
2019-02-03T03:50:53.862Z,70.90
2019-02-03T03:51:53.815Z,65.90
2019-02-03T03:52:53.806Z,71.00
2019-02-03T03:53:53.768Z,73.70
2019-02-03T03:54:53.749Z,71.60
2019-02-03T03:55:53.716Z,68.20
2019-02-03T03:56:53.701Z,72.90
2019-02-03T03:57:53.673Z,68.20
2019-02-03T03:58:53.645Z,68.10
2019-02-03T03:59:53.622Z,68.30
2019-02-03T04:00:53.599Z,66.20
2019-02-03T04:01:53.572Z,68.40
2019-02-03T04:02:53.562Z,69.20
2019-02-03T04:03:53.524Z,70.80
2019-02-03T04:04:53.511Z,68.80
2019-02-03T04:05:53.556Z,70.10
2019-02-03T04:06:53.461Z,69.30
2019-02-03T04:07:53.431Z,65.70
2019-02-03T04:08:53.403Z,68.60
2019-02-03T04:09:53.380Z,69.90
2019-02-03T04:10:53.355Z,68.60
2019-02-03T04:11:53.333Z,68.70
2019-02-03T04:12:53.323Z,70.70
2019-02-03T04:13:53.283Z,69.70
2019-02-03T04:14:53.260Z,65.80
2019-02-03T04:15:53.239Z,68.40
2019-02-03T04:16:53.227Z,66.60
2019-02-03T04:17:53.190Z,70.20
2019-02-03T04:18:53.163Z,66.80
2019-02-03T04:19:53.140Z,66.10
2019-02-03T04:20:53.115Z,69.00
2019-02-03T04:21:53.094Z,67.20
2019-02-03T04:22:53.069Z,69.00
2019-02-03T04:23:53.043Z,66.30
2019-02-03T04:24:53.022Z,68.90
2019-02-03T04:25:52.995Z,67.10
2019-02-03T04:26:52.970Z,66.80
2019-02-03T04:27:52.974Z,63.80
2019-02-03T04:28:52.923Z,63.30
2019-02-03T04:29:52.898Z,66.30
2019-02-03T04:30:52.875Z,63.80
2019-02-03T04:31:52.861Z,65.40
2019-02-03T04:32:52.824Z,64.80
2019-02-03T04:33:52.806Z,64.00
2019-02-03T04:34:52.778Z,61.30
2019-02-03T04:35:52.752Z,60.40
2019-02-03T04:36:52.727Z,64.40
2019-02-03T04:37:52.701Z,61.20
2019-02-03T04:38:58.472Z,64.30
2019-02-03T04:39:52.654Z,62.50
2019-02-03T04:40:52.636Z,61.00
2019-02-03T04:41:52.605Z,60.90
2019-02-03T04:42:52.584Z,62.20
2019-02-03T04:43:52.563Z,61.30
2019-02-03T04:44:52.535Z,63.60
2019-02-03T04:45:52.514Z,59.80
2019-02-03T04:46:52.486Z,61.00
2019-02-03T04:47:52.463Z,63.30
2019-02-03T04:48:52.436Z,60.90
2019-02-03T04:49:52.417Z,63.30
2019-02-03T04:50:52.390Z,60.60
2019-02-03T04:51:52.365Z,60.90
2019-02-03T04:52:52.348Z,59.00
2019-02-03T04:53:52.314Z,58.40
2019-02-03T04:54:52.304Z,57.40
2019-02-03T04:55:52.266Z,59.70
2019-02-03T04:56:52.245Z,58.10
2019-02-03T04:57:52.219Z,58.70
2019-02-03T04:58:52.196Z,57.30
2019-02-03T04:59:52.175Z,54.50
2019-02-03T05:00:52.153Z,58.20
2019-02-03T05:01:52.122Z,54.90
2019-02-03T05:02:52.105Z,56.30
2019-02-03T05:03:52.076Z,55.90
2019-02-03T05:04:52.050Z,55.50
2019-02-03T05:05:52.027Z,58.10
2019-02-03T05:06:52.010Z,55.40
2019-02-03T05:07:51.977Z,56.60
2019-02-03T05:08:51.955Z,55.20
2019-02-03T05:09:51.933Z,52.90
2019-02-03T05:10:51.910Z,54.10
2019-02-03T05:11:51.971Z,53.20
2019-02-03T05:12:51.861Z,51.70
2019-02-03T05:13:51.840Z,50.60
2019-02-03T05:14:51.809Z,50.70
2019-02-03T05:15:51.787Z,52.10
2019-02-03T05:16:51.764Z,47.00
2019-02-03T05:17:51.739Z,49.80
2019-02-03T05:18:51.717Z,51.50
2019-02-03T05:19:51.691Z,52.00
2019-02-03T05:20:51.668Z,52.10
2019-02-03T05:21:51.643Z,54.20
2019-02-03T05:22:51.618Z,54.10
2019-02-03T05:23:51.600Z,51.00
2019-02-03T05:24:51.571Z,51.40
2019-02-03T05:25:54.483Z,51.60
2019-02-03T05:26:51.541Z,51.30
2019-02-03T05:27:51.507Z,52.80
2019-02-03T05:28:51.477Z,52.80
2019-02-03T05:29:51.454Z,52.40
2019-02-03T05:30:51.429Z,49.80
2019-02-03T05:31:51.406Z,50.70
2019-02-03T05:32:51.380Z,50.40
2019-02-03T05:33:51.358Z,53.70
2019-02-03T05:34:51.333Z,52.40
2019-02-03T05:35:51.311Z,52.10
2019-02-03T05:36:51.285Z,51.70
2019-02-03T05:37:51.266Z,51.10
2019-02-03T05:38:51.237Z,50.10
2019-02-03T05:39:51.214Z,51.20
2019-02-03T05:40:51.200Z,50.70
2019-02-03T05:41:51.167Z,51.30
2019-02-03T05:42:51.212Z,51.70
2019-02-03T05:43:51.120Z,49.20
2019-02-03T05:44:51.097Z,50.70
2019-02-03T05:45:51.078Z,49.70
2019-02-03T05:46:51.049Z,50.50
2019-02-03T05:47:51.026Z,49.30
2019-02-03T05:48:51.001Z,50.00
2019-02-03T05:49:50.978Z,48.10
2019-02-03T05:50:50.954Z,48.40
2019-02-03T05:51:50.931Z,48.70
2019-02-03T05:52:50.905Z,46.10
2019-02-03T05:53:50.883Z,46.90
2019-02-03T05:54:50.867Z,46.00
2019-02-03T05:55:50.835Z,46.60
2019-02-03T05:56:50.813Z,46.50
2019-02-03T05:57:50.787Z,48.80
2019-02-03T05:58:50.767Z,46.80
2019-02-03T05:59:50.741Z,49.40
2019-02-03T06:00:50.720Z,48.20
2019-02-03T06:01:50.696Z,46.20
2019-02-03T06:02:50.682Z,48.90
2019-02-03T06:03:50.650Z,46.10
2019-02-03T06:04:50.623Z,48.80
2019-02-03T06:05:50.608Z,47.50
2019-02-03T06:06:50.577Z,48.60
2019-02-03T06:07:50.554Z,49.80
2019-02-03T06:08:50.535Z,47.10
2019-02-03T06:09:50.510Z,47.70
2019-02-03T06:10:50.479Z,47.00
2019-02-03T06:11:50.458Z,47.00
2019-02-03T06:12:50.435Z,45.30
2019-02-03T06:13:50.421Z,44.40
2019-02-03T06:14:50.397Z,48.10
2019-02-03T06:15:50.367Z,47.20
2019-02-03T06:16:50.340Z,46.40
2019-02-03T06:17:50.312Z,46.50
2019-02-03T06:18:50.289Z,44.40
2019-02-03T06:19:50.271Z,45.60
2019-02-03T06:20:50.248Z,45.50
2019-02-03T06:21:50.219Z,46.20
2019-02-03T06:22:50.193Z,44.40
2019-02-03T06:23:50.178Z,43.60
2019-02-03T06:24:51.869Z,45.30
2019-02-03T06:25:50.129Z,43.10
2019-02-03T06:26:50.099Z,41.90
2019-02-03T06:27:50.078Z,42.80
2019-02-03T06:28:50.067Z,41.60
2019-02-03T06:29:50.027Z,43.50
2019-02-03T06:30:50.005Z,43.70
2019-02-03T06:31:49.981Z,40.80
2019-02-03T06:32:49.957Z,42.00
2019-02-03T06:33:49.934Z,44.50
2019-02-03T06:34:49.922Z,42.90
2019-02-03T06:35:49.892Z,40.80
2019-02-03T06:36:51.917Z,41.60
2019-02-03T06:37:49.840Z,41.20
2019-02-03T06:38:49.822Z,40.00
2019-02-03T06:39:49.796Z,39.40
2019-02-03T06:40:49.772Z,40.10
2019-02-03T06:41:49.744Z,40.70
2019-02-03T06:42:49.718Z,39.60
2019-02-03T06:43:49.696Z,40.20
2019-02-03T06:44:49.672Z,39.90
2019-02-03T06:45:49.647Z,38.80
2019-02-03T06:46:49.622Z,39.00
2019-02-03T06:47:49.602Z,38.60
2019-02-03T06:48:49.574Z,38.50
2019-02-03T06:49:49.551Z,36.30
2019-02-03T06:50:49.617Z,36.70
2019-02-03T06:51:49.504Z,38.50
2019-02-03T06:52:49.490Z,39.20
2019-02-03T06:53:49.458Z,37.90
2019-02-03T06:54:49.435Z,36.90
2019-02-03T06:55:49.408Z,36.50
2019-02-03T06:56:49.465Z,36.20
2019-02-03T06:57:49.370Z,36.20
2019-02-03T06:58:49.336Z,36.50
2019-02-03T06:59:51.259Z,34.40
2019-02-03T07:00:49.289Z,36.40
2019-02-03T07:01:49.265Z,35.20
2019-02-03T07:02:49.241Z,36.00
2019-02-03T07:03:49.216Z,36.50
2019-02-03T07:04:49.193Z,35.30
2019-02-03T07:05:49.170Z,34.60
2019-02-03T07:06:49.147Z,34.40
2019-02-03T07:07:49.121Z,33.40
2019-02-03T07:08:49.096Z,31.60
2019-02-03T07:09:59.725Z,30.40
2019-02-03T07:10:49.052Z,33.30
2019-02-03T07:11:49.025Z,31.70
2019-02-03T07:12:49.001Z,31.00
2019-02-03T07:13:48.977Z,32.20
2019-02-03T07:14:48.960Z,30.70
2019-02-03T07:15:48.928Z,29.90
2019-02-03T07:16:48.905Z,30.10
2019-02-03T07:17:48.882Z,30.50
2019-02-03T07:18:48.856Z,30.00
2019-02-03T07:19:48.835Z,30.00
2019-02-03T07:20:48.815Z,29.70
2019-02-03T07:21:49.486Z,29.80
2019-02-03T07:22:48.762Z,27.90
2019-02-03T07:23:48.740Z,28.80
2019-02-03T07:24:48.720Z,28.00
2019-02-03T07:25:48.689Z,26.70
2019-02-03T07:26:48.668Z,26.60
2019-02-03T07:27:48.638Z,27.10
2019-02-03T07:28:48.623Z,27.00
2019-02-03T07:29:48.593Z,27.50
2019-02-03T07:30:48.570Z,26.80
2019-02-03T07:31:48.553Z,27.90
2019-02-03T07:32:48.520Z,28.00
2019-02-03T07:33:48.501Z,28.70
2019-02-03T07:34:48.470Z,27.20
2019-02-03T07:35:48.449Z,26.50
2019-02-03T07:36:48.423Z,25.50
2019-02-03T07:37:48.401Z,25.80
2019-02-03T07:38:48.376Z,25.00
2019-02-03T07:39:48.351Z,25.80
2019-02-03T07:40:48.333Z,24.30
2019-02-03T07:41:48.309Z,26.60
2019-02-03T07:42:48.283Z,24.00
2019-02-03T07:43:48.260Z,25.70
2019-02-03T07:44:48.234Z,24.70
2019-02-03T07:45:48.211Z,25.10
2019-02-03T07:46:48.197Z,24.70
2019-02-03T07:47:48.162Z,24.10
2019-02-03T07:48:48.143Z,24.30
2019-02-03T07:49:48.115Z,24.50
2019-02-03T07:50:48.093Z,25.30
2019-02-03T07:51:48.072Z,24.70
2019-02-03T07:52:48.044Z,23.10
2019-02-03T07:53:48.018Z,23.70
2019-02-03T07:54:47.993Z,23.50
2019-02-03T07:55:47.971Z,23.20
2019-02-03T07:56:47.943Z,22.70
2019-02-03T07:57:47.921Z,24.20
2019-02-03T07:58:47.898Z,21.80
2019-02-03T07:59:47.871Z,21.80
2019-02-03T08:00:47.853Z,23.50
2019-02-03T08:01:47.828Z,21.30
2019-02-03T08:02:47.813Z,21.60
2019-02-03T08:03:47.779Z,21.20
2019-02-03T08:04:47.756Z,19.40
2019-02-03T08:05:47.736Z,20.10
2019-02-03T08:06:47.712Z,18.90
2019-02-03T08:07:47.693Z,17.50
2019-02-03T08:08:47.676Z,18.20
2019-02-03T08:09:47.663Z,17.50
2019-02-03T08:10:47.625Z,16.20
2019-02-03T08:11:47.616Z,17.20
2019-02-03T08:12:47.583Z,17.00
2019-02-03T08:13:47.561Z,17.70
2019-02-03T08:14:47.536Z,16.10
2019-02-03T08:15:47.517Z,15.70
2019-02-03T08:16:47.505Z,15.30
2019-02-03T08:17:47.481Z,15.30
2019-02-03T08:18:47.452Z,15.50
2019-02-03T08:19:47.435Z,14.50
2019-02-03T08:20:47.414Z,15.00
2019-02-03T08:21:47.396Z,14.80
2019-02-03T08:22:47.393Z,14.20
2019-02-03T08:23:47.353Z,14.50
2019-02-03T08:24:47.338Z,13.60
2019-02-03T08:25:47.315Z,13.80
2019-02-03T08:26:47.298Z,13.80
2019-02-03T08:27:47.278Z,13.60
2019-02-03T08:28:47.258Z,13.30
2019-02-03T08:29:47.242Z,13.60
2019-02-03T08:30:47.222Z,13.90
2019-02-03T08:31:47.210Z,12.70
2019-02-03T08:32:47.183Z,13.00
2019-02-03T08:33:47.162Z,12.40
2019-02-03T08:34:47.142Z,12.80
2019-02-03T08:35:47.137Z,12.50
2019-02-03T08:36:47.107Z,11.90
2019-02-03T08:37:47.087Z,12.10
2019-02-03T08:38:47.069Z,12.30
2019-02-03T08:39:47.052Z,12.10
2019-02-03T08:40:47.036Z,11.90
2019-02-03T08:41:47.040Z,11.70
2019-02-03T08:42:46.995Z,12.40
2019-02-03T08:43:46.980Z,12.60
2019-02-03T08:44:46.969Z,11.80
2019-02-03T08:45:46.944Z,12.20
2019-02-03T08:46:46.925Z,11.80
2019-02-03T08:47:46.918Z,11.70
2019-02-03T08:48:46.896Z,11.90
2019-02-03T08:49:46.876Z,11.00
2019-02-03T08:50:46.864Z,11.60
2019-02-03T08:51:46.841Z,11.20
2019-02-03T08:52:46.825Z,11.10
2019-02-03T08:53:46.814Z,10.60
2019-02-03T08:54:58.006Z,11.10
2019-02-03T08:55:46.786Z,11.60
2019-02-03T08:56:46.766Z,10.60
2019-02-03T08:57:46.756Z,10.30
2019-02-03T08:58:46.744Z,10.30
2019-02-03T08:59:46.725Z,10.10
2019-02-03T09:00:46.712Z,10.90
2019-02-03T09:01:46.698Z,10.30
2019-02-03T09:02:46.684Z,10.70
2019-02-03T09:03:46.674Z,10.60
2019-02-03T09:04:46.662Z,10.10
2019-02-03T09:05:46.652Z,10.20
2019-02-03T09:06:46.635Z,10.70
2019-02-03T09:07:46.625Z,10.50
2019-02-03T09:08:46.615Z,10.10
2019-02-03T09:09:46.604Z,10.80
2019-02-03T09:10:48.750Z,10.70
2019-02-03T09:11:46.581Z,10.50
2019-02-03T09:12:46.576Z,11.20
2019-02-03T09:13:46.568Z,9.90
2019-02-03T09:14:46.549Z,10.70
2019-02-03T09:15:46.540Z,10.20
2019-02-03T09:16:46.530Z,10.00
2019-02-03T09:17:46.658Z,10.00
2019-02-03T09:18:46.508Z,10.20
2019-02-03T09:19:46.496Z,10.00
2019-02-03T09:20:48.234Z,10.40
2019-02-03T09:21:46.480Z,9.70
2019-02-03T09:22:46.470Z,9.60
2019-02-03T09:23:46.468Z,10.20
2019-02-03T09:24:46.446Z,9.30
2019-02-03T09:25:46.440Z,10.20
2019-02-03T09:26:46.435Z,9.90
2019-02-03T09:27:46.423Z,10.40
2019-02-03T09:28:46.417Z,10.00
2019-02-03T09:29:46.405Z,10.40
2019-02-03T09:30:46.406Z,10.70
2019-02-03T09:31:46.386Z,10.00
2019-02-03T09:32:46.391Z,9.80
2019-02-03T09:33:46.369Z,9.90
2019-02-03T09:34:46.598Z,9.50
2019-02-03T09:35:46.364Z,9.70
2019-02-03T09:36:46.343Z,9.60
2019-02-03T09:37:46.336Z,9.60
2019-02-03T09:38:46.331Z,9.20
2019-02-03T09:39:46.330Z,10.40
2019-02-03T09:40:46.311Z,10.20
2019-02-03T09:41:46.302Z,9.80
2019-02-03T09:42:47.167Z,9.20
2019-02-03T09:43:46.285Z,9.60
2019-02-03T09:44:46.285Z,10.10
2019-02-03T09:45:46.279Z,9.30
2019-02-03T09:46:46.264Z,9.30
2019-02-03T09:47:46.252Z,8.90
2019-02-03T09:48:46.253Z,8.80
2019-02-03T09:49:46.238Z,9.20
2019-02-03T09:50:46.227Z,9.30
2019-02-03T09:51:46.220Z,9.70
2019-02-03T09:52:46.213Z,9.00
2019-02-03T09:53:46.208Z,9.70
2019-02-03T09:54:46.210Z,9.20
2019-02-03T09:55:46.209Z,8.60
2019-02-03T09:56:46.198Z,8.80
2019-02-03T09:57:46.172Z,8.70
2019-02-03T09:58:46.164Z,8.50
2019-02-03T09:59:46.164Z,9.70
2019-02-03T10:00:46.166Z,8.30
2019-02-03T10:01:46.142Z,9.40
2019-02-03T10:02:46.137Z,8.30
2019-02-03T10:03:46.127Z,8.80
2019-02-03T10:04:46.127Z,8.70
2019-02-03T10:05:46.110Z,8.80
2019-02-03T10:06:46.099Z,9.00
2019-02-03T10:07:46.111Z,9.00
2019-02-03T10:08:46.085Z,8.50
2019-02-03T10:09:46.077Z,7.90
2019-02-03T10:10:46.069Z,8.50
2019-02-03T10:11:46.073Z,8.30
2019-02-03T10:12:46.054Z,8.20
2019-02-03T10:13:46.045Z,8.40
2019-02-03T10:14:46.038Z,12.50
2019-02-03T10:15:46.031Z,11.40
2019-02-03T10:16:47.566Z,16.10
2019-02-03T10:17:46.016Z,10.50
2019-02-03T10:18:45.999Z,12.40
2019-02-03T10:19:45.990Z,10.20
2019-02-03T10:20:45.986Z,8.50
2019-02-03T10:21:45.974Z,9.00
2019-02-03T10:22:45.969Z,8.30
2019-02-03T10:23:45.962Z,8.50
2019-02-03T10:24:45.954Z,8.60
2019-02-03T10:25:45.938Z,8.00
2019-02-03T10:26:45.936Z,8.40
2019-02-03T10:27:45.922Z,8.70
2019-02-03T10:28:46.684Z,8.30
2019-02-03T10:29:45.919Z,8.50
2019-02-03T10:30:46.033Z,8.70
2019-02-03T10:31:45.888Z,8.10
2019-02-03T10:32:45.894Z,8.50
2019-02-03T10:33:45.881Z,7.70
2019-02-03T10:34:45.858Z,7.90
2019-02-03T10:35:45.852Z,7.60
2019-02-03T10:36:45.849Z,8.20
2019-02-03T10:37:45.831Z,8.30
2019-02-03T10:38:45.825Z,7.60
2019-02-03T10:39:45.815Z,7.40
2019-02-03T10:40:45.805Z,7.40
2019-02-03T10:41:45.798Z,7.50
2019-02-03T10:42:45.795Z,8.30
2019-02-03T10:43:45.779Z,8.10
2019-02-03T10:44:45.776Z,7.50
2019-02-03T10:45:45.760Z,8.00
2019-02-03T10:46:45.745Z,8.40
2019-02-03T10:47:45.740Z,7.40
2019-02-03T10:48:45.726Z,7.90
2019-02-03T10:49:46.779Z,7.50
2019-02-03T10:50:45.710Z,7.10
2019-02-03T10:51:45.727Z,6.80
2019-02-03T10:52:45.700Z,6.80
2019-02-03T10:53:45.689Z,6.50
2019-02-03T10:54:45.670Z,7.00
2019-02-03T10:55:45.666Z,6.70
2019-02-03T10:56:45.655Z,6.80
2019-02-03T10:57:45.646Z,6.90
2019-02-03T10:58:45.631Z,6.60
2019-02-03T10:59:45.627Z,5.80
2019-02-03T11:00:45.614Z,6.30
2019-02-03T11:01:45.599Z,17.60
2019-02-03T11:02:45.595Z,14.40
2019-02-03T11:03:45.574Z,9.00
2019-02-03T11:04:45.577Z,8.10
2019-02-03T11:05:45.560Z,7.00
2019-02-03T11:06:45.536Z,6.50
2019-02-03T11:07:45.526Z,6.90
2019-02-03T11:08:45.524Z,7.00
2019-02-03T11:09:45.502Z,6.40
2019-02-03T11:10:45.500Z,5.60
2019-02-03T11:11:45.477Z,6.70
2019-02-03T11:12:45.468Z,6.40
2019-02-03T11:13:45.450Z,6.60
2019-02-03T11:14:45.440Z,6.30
2019-02-03T11:15:45.426Z,6.60
2019-02-03T11:16:45.417Z,6.60
2019-02-03T11:17:45.393Z,6.50
2019-02-03T11:18:45.381Z,6.20
2019-02-03T11:19:45.372Z,6.10
2019-02-03T11:20:45.354Z,6.00
2019-02-03T11:21:45.341Z,6.30
2019-02-03T11:22:45.327Z,6.70
2019-02-03T11:23:45.309Z,6.30
2019-02-03T11:24:45.295Z,5.90
2019-02-03T11:25:45.279Z,6.00
2019-02-03T11:26:45.267Z,5.90
2019-02-03T11:27:45.247Z,6.20
2019-02-03T11:28:45.235Z,6.10
2019-02-03T11:29:45.222Z,6.70
2019-02-03T11:30:45.207Z,6.20
2019-02-03T11:31:45.192Z,6.30
2019-02-03T11:32:45.175Z,6.40
2019-02-03T11:33:45.164Z,6.80
2019-02-03T11:34:45.149Z,6.60
2019-02-03T11:35:45.140Z,6.00
2019-02-03T11:36:45.132Z,6.00
2019-02-03T11:37:45.102Z,6.50
2019-02-03T11:38:45.082Z,6.10
2019-02-03T11:39:45.067Z,6.80
2019-02-03T11:40:45.055Z,6.10
2019-02-03T11:41:49.377Z,6.40
2019-02-03T11:42:45.021Z,6.70
2019-02-03T11:43:45.002Z,6.40
2019-02-03T11:44:44.986Z,6.60
2019-02-03T11:45:44.970Z,7.00
2019-02-03T11:46:44.958Z,31.80
2019-02-03T11:47:44.940Z,9.10
2019-02-03T11:48:44.931Z,6.40
2019-02-03T11:49:44.915Z,16.60
2019-02-03T11:50:44.898Z,10.70
2019-02-03T11:51:44.872Z,6.60
2019-02-03T11:52:44.862Z,6.60
2019-02-03T11:53:44.840Z,6.30
2019-02-03T11:54:44.821Z,6.30
2019-02-03T11:55:44.808Z,6.20
2019-02-03T11:56:44.788Z,6.20
2019-02-03T11:57:44.774Z,6.40
2019-02-03T11:58:44.770Z,6.40
2019-02-03T11:59:44.744Z,6.70
2019-02-03T12:00:44.720Z,5.90
2019-02-03T12:01:44.707Z,6.30
2019-02-03T12:02:44.684Z,6.70
2019-02-03T12:03:44.668Z,6.30
2019-02-03T12:04:44.658Z,6.10
2019-02-03T12:05:44.640Z,6.10
2019-02-03T12:06:44.614Z,6.40
2019-02-03T12:07:44.599Z,6.50
2019-02-03T12:08:44.583Z,6.70
2019-02-03T12:09:44.563Z,5.90
2019-02-03T12:10:44.550Z,5.80
2019-02-03T12:11:44.522Z,6.30
2019-02-03T12:12:44.512Z,6.00
2019-02-03T12:13:44.496Z,6.00
2019-02-03T12:14:44.470Z,5.80
2019-02-03T12:15:44.456Z,5.70
2019-02-03T12:16:44.432Z,6.10
2019-02-03T12:17:44.412Z,5.30
2019-02-03T12:18:44.403Z,5.70
2019-02-03T12:19:44.372Z,5.40
2019-02-03T12:20:44.356Z,5.60
2019-02-03T12:21:44.342Z,5.80
2019-02-03T12:22:44.328Z,5.50
2019-02-03T12:23:44.303Z,5.60
2019-02-03T12:24:44.285Z,6.40
2019-02-03T12:25:44.262Z,6.00
2019-02-03T12:26:44.246Z,6.00
2019-02-03T12:27:44.237Z,5.20
2019-02-03T12:28:44.205Z,5.70
2019-02-03T12:29:44.192Z,6.00
2019-02-03T12:30:44.170Z,5.90
2019-02-03T12:31:44.148Z,5.90
2019-02-03T12:32:44.134Z,5.70
2019-02-03T12:33:44.110Z,5.90
2019-02-03T12:34:44.094Z,6.00
2019-02-03T12:35:44.080Z,5.50
2019-02-03T12:36:44.054Z,5.60
2019-02-03T12:37:44.039Z,6.00
2019-02-03T12:38:44.023Z,8.60
2019-02-03T12:39:43.998Z,10.90
2019-02-03T12:40:43.980Z,13.80
2019-02-03T12:41:43.961Z,7.60
2019-02-03T12:42:43.945Z,7.40
2019-02-03T12:43:43.920Z,11.30
2019-02-03T12:44:43.904Z,7.60
2019-02-03T12:45:43.887Z,6.10
2019-02-03T12:46:43.867Z,6.40
2019-02-03T12:47:43.854Z,5.60
2019-02-03T12:48:43.838Z,6.40
2019-02-03T12:49:43.815Z,6.00
2019-02-03T12:50:43.812Z,5.50
2019-02-03T12:51:43.769Z,6.20
2019-02-03T12:52:43.760Z,5.80
2019-02-03T12:53:43.735Z,6.10
2019-02-03T12:54:43.717Z,6.00
2019-02-03T12:55:44.857Z,5.90
2019-02-03T12:56:43.686Z,6.00
2019-02-03T12:57:46.547Z,6.00
2019-02-03T12:58:43.647Z,6.00
2019-02-03T12:59:43.629Z,6.00